Wednesday, September 20, 2017, 9:30 PM EDT

KOFP, Hanover County Municipal

Location: Ashland, VA, United States Lat: 37.7
Local Time: 9:30 PM EDT ( 1:30 GMT) Lon: -77.433
Time Zone: US/Eastern Elev: 203 ft

Show me the last for .
Show Decoded

2017-09-20 20:54 METAR KOFP 210054Z AUTO 04003KT 10SM CLR 21/19 A2998 RMK AO2 SLP149 T02060194 =
2017-09-20 19:54 METAR KOFP 202354Z AUTO 00000KT 10SM CLR 23/20 A2997 RMK AO2 SLP145 T02280200
                 10311 20228 53011 =
2017-09-20 18:54 METAR KOFP 202254Z AUTO 00000KT 10SM CLR 24/21 A2995 RMK AO2 SLP141 T02440206 =
2017-09-20 17:54 METAR KOFP 202154Z AUTO 10SM CLR 29/17 A2994 RMK AO2 SLP137 T02940172 =
2017-09-20 16:54 METAR KOFP 202054Z AUTO VRB04KT 10SM CLR 31/17 A2993 RMK AO2 SLP134 T03060167
                 56011 =
2017-09-20 15:54 METAR KOFP 201954Z AUTO VRB06KT 10SM CLR 31/17 A2994 RMK AO2 SLP135 T03110167 =
2017-09-20 14:54 METAR KOFP 201854Z AUTO 27009KT 10SM CLR 31/16 A2995 RMK AO2 SLP140 T03060161 =
2017-09-20 13:54 METAR KOFP 201754Z AUTO 28009KT 10SM CLR 31/15 A2997 RMK AO2 SLP144 T03060150
                 10306 20194 58013 =
2017-09-20 12:54 METAR KOFP 201654Z AUTO 31008KT 10SM CLR 30/17 A2998 RMK AO2 SLP151 T03000167 =
2017-09-20 11:54 METAR KOFP 201554Z AUTO 28007KT 10SM CLR 29/17 A2999 RMK AO2 SLP155 T02890172 =
2017-09-20 10:54 METAR KOFP 201454Z AUTO 32004KT 10SM CLR 27/18 A3000 RMK AO2 SLP158 T02720178
                 50008 =
2017-09-20 09:54 METAR KOFP 201354Z AUTO 30006KT 10SM CLR 25/18 A3000 RMK AO2 SLP159 T02500183 =
2017-09-20 08:54 METAR KOFP 201254Z AUTO 30004KT 10SM CLR 22/18 A2999 RMK AO2 SLP154 T02220183 =
2017-09-20 07:54 METAR KOFP 201154Z AUTO VRB04KT 8SM CLR 19/18 A2998 RMK AO2 SLP150 7////
                 T01940178 10200 20178 53013 =
2017-09-20 06:54 METAR KOFP 201054Z AUTO 00000KT 10SM CLR 18/17 A2996 RMK AO2 SLP145 T01780172 =
2017-09-20 05:54 METAR KOFP 200954Z AUTO 00000KT 9SM CLR 18/17 A2994 RMK AO2 SLP138 T01780172 =
2017-09-20 04:54 METAR KOFP 200854Z AUTO 00000KT 10SM CLR 18/17 A2994 RMK AO2 SLP137 T01830172
                 53001 =
2017-09-20 03:54 METAR KOFP 200754Z AUTO 00000KT 10SM CLR 19/18 A2993 RMK AO2 SLP133 T01890178 =
2017-09-20 02:54 METAR KOFP 200654Z AUTO 00000KT 10SM CLR 20/18 A2993 RMK AO2 SLP135 T02000178 =
2017-09-20 01:54 METAR KOFP 200554Z AUTO 00000KT 10SM CLR 20/18 A2994 RMK AO2 SLPNO T02000178
                 10228 20194 53002 =
2017-09-20 00:54 METAR KOFP 200454Z AUTO 00000KT 10SM CLR 20/18 A2993 RMK AO2 SLPNO T02000178
                 402830194 =
2017-09-19 23:54 METAR KOFP 200354Z AUTO 00000KT 10SM CLR 20/18 A2994 RMK AO2 SLPNO T02000178 =
2017-09-19 22:54 METAR KOFP 200254Z AUTO 31003KT 10SM CLR 21/18 A2994 RMK AO2 SLP135 T02110178
                 51008 =
2017-09-19 21:54 METAR KOFP 200154Z AUTO 32003KT 10SM CLR 22/18 A2993 RMK AO2 SLP134 T02170183 =

Support USWX by starting your Amazon purchase here.